createdAt,value
2022-11-09T00:01:07.202Z,13.80
2022-11-09T00:03:33.888Z,13.80
2022-11-09T00:06:00.974Z,13.80
2022-11-09T00:08:28.187Z,13.90
2022-11-09T00:10:55.245Z,13.90
2022-11-09T00:13:22.797Z,13.90
2022-11-09T00:15:50.030Z,13.90
2022-11-09T00:18:16.798Z,13.90
2022-11-09T00:20:47.599Z,14.00
2022-11-09T00:23:15.409Z,14.10
2022-11-09T00:25:42.125Z,14.00
2022-11-09T00:28:08.904Z,14.10
2022-11-09T00:30:35.635Z,14.10
2022-11-09T00:33:02.410Z,14.10
2022-11-09T00:35:29.168Z,14.20
2022-11-09T00:37:56.008Z,14.20
2022-11-09T00:40:22.783Z,14.20
2022-11-09T00:42:49.581Z,14.00
2022-11-09T00:45:16.735Z,13.90
2022-11-09T00:47:44.469Z,13.80
2022-11-09T00:50:11.161Z,13.70
2022-11-09T00:52:38.459Z,13.50
2022-11-09T00:55:05.624Z,13.40
2022-11-09T00:57:32.383Z,13.20
2022-11-09T00:59:59.042Z,13.00
2022-11-09T01:02:25.748Z,13.00
2022-11-09T01:04:52.478Z,12.90
2022-11-09T01:07:19.183Z,12.90
2022-11-09T01:09:46.012Z,13.00
2022-11-09T01:12:12.797Z,13.00
2022-11-09T01:14:39.511Z,13.10
2022-11-09T01:17:06.195Z,13.10
2022-11-09T01:19:32.905Z,13.10
2022-11-09T01:21:59.656Z,13.10
2022-11-09T01:24:26.359Z,13.10
2022-11-09T01:26:53.060Z,13.10
2022-11-09T01:29:19.880Z,13.00
2022-11-09T01:31:48.477Z,13.10
2022-11-09T01:34:17.370Z,13.00
2022-11-09T01:36:44.304Z,13.00
2022-11-09T01:39:11.057Z,13.00
2022-11-09T01:41:37.800Z,13.00
2022-11-09T01:44:13.657Z,12.90
2022-11-09T01:46:54.745Z,12.90
2022-11-09T01:49:32.047Z,12.90
2022-11-09T01:52:19.844Z,12.90
2022-11-09T01:54:50.375Z,12.90
2022-11-09T01:57:25.150Z,12.90
2022-11-09T01:59:57.247Z,12.90
2022-11-09T02:02:24.698Z,12.90
2022-11-09T02:04:56.819Z,12.90
2022-11-09T02:07:24.506Z,12.90
2022-11-09T02:09:54.255Z,12.90
2022-11-09T02:12:22.886Z,12.90
2022-11-09T02:14:53.531Z,12.90
2022-11-09T02:17:21.121Z,13.00
2022-11-09T02:19:47.846Z,13.00
2022-11-09T02:22:15.168Z,12.90
2022-11-09T02:24:41.895Z,12.90
2022-11-09T02:27:08.977Z,13.00
2022-11-09T02:29:39.341Z,13.00
2022-11-09T02:32:24.054Z,12.90
2022-11-09T02:34:50.782Z,13.00
2022-11-09T02:37:28.239Z,13.10
2022-11-09T02:39:57.319Z,13.10
2022-11-09T02:42:24.335Z,13.10
2022-11-09T02:44:58.534Z,13.10
2022-11-09T02:47:25.655Z,13.10
2022-11-09T02:49:52.519Z,13.10
2022-11-09T02:52:19.571Z,13.10
2022-11-09T02:54:46.571Z,13.10
2022-11-09T02:57:13.293Z,13.10
2022-11-09T02:59:40.151Z,13.20
2022-11-09T03:02:06.922Z,13.20
2022-11-09T03:04:33.641Z,13.10
2022-11-09T03:07:00.425Z,13.20
2022-11-09T03:09:27.191Z,13.20
2022-11-09T03:11:53.976Z,13.10
2022-11-09T03:14:20.682Z,13.10
2022-11-09T03:16:50.489Z,13.10
2022-11-09T03:19:17.708Z,13.20
2022-11-09T03:21:44.708Z,13.20
2022-11-09T03:24:11.541Z,13.20
2022-11-09T03:26:38.310Z,13.20
2022-11-09T03:29:05.087Z,13.10
2022-11-09T03:31:31.885Z,13.20
2022-11-09T03:33:58.574Z,13.20
2022-11-09T03:36:25.308Z,13.20
2022-11-09T03:38:52.019Z,13.20
2022-11-09T03:41:18.876Z,13.20
2022-11-09T03:43:45.587Z,13.20
2022-11-09T03:46:12.375Z,13.10
2022-11-09T03:48:39.056Z,13.10
2022-11-09T03:51:05.970Z,13.00
2022-11-09T03:53:32.671Z,13.00
2022-11-09T03:55:59.474Z,12.90
2022-11-09T03:58:26.249Z,12.90
2022-11-09T04:00:53.036Z,12.80
2022-11-09T04:03:20.068Z,12.80
2022-11-09T04:05:47.036Z,12.80
2022-11-09T04:08:13.850Z,12.80
2022-11-09T04:10:40.639Z,12.80
2022-11-09T04:13:07.388Z,12.80
2022-11-09T04:15:34.371Z,12.80
2022-11-09T04:18:02.543Z,12.80
2022-11-09T04:20:30.766Z,12.90
2022-11-09T04:23:03.171Z,12.90
2022-11-09T04:25:34.005Z,12.80
2022-11-09T04:28:01.890Z,12.80
2022-11-09T04:30:30.120Z,12.80
2022-11-09T04:32:57.599Z,12.80
2022-11-09T04:35:25.088Z,12.80
2022-11-09T04:38:00.099Z,12.80
2022-11-09T04:40:29.993Z,12.80
2022-11-09T04:43:00.602Z,12.70
2022-11-09T04:45:27.595Z,12.70
2022-11-09T04:48:01.265Z,12.70
2022-11-09T04:50:29.074Z,12.70
2022-11-09T04:53:19.540Z,12.70
2022-11-09T04:55:46.325Z,12.70
2022-11-09T04:58:13.032Z,12.60
2022-11-09T05:00:40.210Z,12.60
2022-11-09T05:03:07.617Z,12.60
2022-11-09T05:05:36.330Z,12.60
2022-11-09T05:08:03.334Z,12.60
2022-11-09T05:10:30.829Z,12.60
2022-11-09T05:13:15.978Z,12.70
2022-11-09T05:15:43.082Z,12.70
2022-11-09T05:18:10.558Z,12.70
2022-11-09T05:20:37.365Z,12.70
2022-11-09T05:23:23.305Z,12.70
2022-11-09T05:25:50.316Z,12.70
2022-11-09T05:28:17.276Z,12.70
2022-11-09T05:30:43.977Z,12.70
2022-11-09T05:33:10.731Z,12.60
2022-11-09T05:35:37.452Z,12.60
2022-11-09T05:38:04.301Z,12.60
2022-11-09T05:40:32.199Z,12.60
2022-11-09T05:42:58.891Z,12.50
2022-11-09T05:45:42.213Z,12.50
2022-11-09T05:48:11.005Z,12.50
2022-11-09T05:50:38.104Z,12.40
2022-11-09T05:53:05.401Z,12.40
2022-11-09T05:55:32.108Z,12.40
2022-11-09T05:57:58.982Z,12.40
2022-11-09T06:00:26.676Z,12.30
2022-11-09T06:02:53.855Z,12.30
2022-11-09T06:05:21.579Z,12.30
2022-11-09T06:07:48.365Z,12.20
2022-11-09T06:10:15.113Z,12.20
2022-11-09T06:12:41.853Z,12.20
2022-11-09T06:15:09.163Z,12.20
2022-11-09T06:17:35.932Z,12.10
2022-11-09T06:20:04.197Z,12.10
2022-11-09T06:22:31.099Z,12.10
2022-11-09T06:24:57.805Z,12.10
2022-11-09T06:27:24.742Z,12.10
2022-11-09T06:29:51.532Z,12.10
2022-11-09T06:32:18.255Z,12.10
2022-11-09T06:34:48.254Z,12.10
2022-11-09T06:37:17.780Z,12.10
2022-11-09T06:39:45.406Z,12.10
2022-11-09T06:42:12.276Z,12.10
2022-11-09T06:44:39.012Z,12.10
2022-11-09T06:47:05.770Z,12.10
2022-11-09T06:49:32.499Z,12.10
2022-11-09T06:51:59.240Z,12.00
2022-11-09T06:54:26.064Z,12.00
2022-11-09T06:56:55.151Z,12.00
2022-11-09T06:59:22.392Z,12.00
2022-11-09T07:01:49.238Z,12.00
2022-11-09T07:04:16.451Z,12.00
2022-11-09T07:06:43.397Z,11.90
2022-11-09T07:09:11.788Z,12.00
2022-11-09T07:11:38.738Z,11.90
2022-11-09T07:14:05.827Z,11.90
2022-11-09T07:16:33.049Z,12.00
2022-11-09T07:18:59.881Z,12.00
2022-11-09T07:21:26.617Z,12.00
2022-11-09T07:23:53.423Z,12.00
2022-11-09T07:26:20.185Z,12.10
2022-11-09T07:28:46.979Z,12.20
2022-11-09T07:31:13.721Z,12.20
2022-11-09T07:33:40.425Z,12.30
2022-11-09T07:36:07.832Z,12.30
2022-11-09T07:38:35.123Z,12.40
2022-11-09T07:41:02.522Z,12.40
2022-11-09T07:43:29.997Z,12.30
2022-11-09T07:45:56.753Z,12.40
2022-11-09T07:48:23.717Z,12.30
2022-11-09T07:50:50.556Z,12.30
2022-11-09T07:53:17.627Z,12.30
2022-11-09T07:55:44.527Z,12.30
2022-11-09T07:58:15.771Z,12.30
2022-11-09T08:00:43.885Z,12.30
2022-11-09T08:03:11.074Z,12.40
2022-11-09T08:05:38.589Z,12.40
2022-11-09T08:08:07.832Z,12.40
2022-11-09T08:10:36.197Z,12.40
2022-11-09T08:13:09.602Z,12.40
2022-11-09T08:15:38.280Z,12.50
2022-11-09T08:18:07.791Z,12.50
2022-11-09T08:20:34.967Z,12.60
2022-11-09T08:23:04.798Z,12.70
2022-11-09T08:25:33.962Z,12.70
2022-11-09T08:28:01.003Z,12.80
2022-11-09T08:30:27.823Z,12.80
2022-11-09T08:32:55.023Z,12.80
2022-11-09T08:35:24.290Z,12.90
2022-11-09T08:37:52.531Z,12.90
2022-11-09T08:40:22.307Z,12.90
2022-11-09T08:42:49.195Z,12.90
2022-11-09T08:45:16.116Z,12.90
2022-11-09T08:47:43.603Z,12.90
2022-11-09T08:50:13.090Z,12.90
2022-11-09T08:52:40.608Z,12.90
2022-11-09T08:55:08.201Z,13.00
2022-11-09T08:57:35.132Z,13.00
2022-11-09T09:00:02.032Z,13.00
2022-11-09T09:02:28.869Z,13.10
2022-11-09T09:04:55.564Z,13.10
2022-11-09T09:07:22.488Z,13.10
2022-11-09T09:09:49.331Z,13.10
2022-11-09T09:12:16.166Z,13.10
2022-11-09T09:14:42.821Z,13.10
2022-11-09T09:17:09.826Z,13.10
2022-11-09T09:19:36.589Z,13.20
2022-11-09T09:22:03.674Z,13.30
2022-11-09T09:24:30.443Z,13.30
2022-11-09T09:26:57.353Z,13.40
2022-11-09T09:29:24.383Z,13.30
2022-11-09T09:31:51.202Z,13.30
2022-11-09T09:34:18.079Z,13.30
2022-11-09T09:36:48.078Z,13.30
2022-11-09T09:39:15.665Z,13.40
2022-11-09T09:42:02.237Z,13.40
2022-11-09T09:44:54.206Z,13.60
2022-11-09T09:47:33.987Z,13.70
2022-11-09T09:50:21.040Z,13.60
2022-11-09T09:53:22.721Z,13.70
2022-11-09T09:55:51.001Z,13.50
2022-11-09T09:58:24.673Z,13.60
2022-11-09T10:00:57.401Z,13.50
2022-11-09T10:03:24.247Z,13.50
2022-11-09T10:06:28.059Z,13.60
2022-11-09T10:09:03.384Z,13.60
2022-11-09T10:11:59.893Z,13.60
2022-11-09T10:14:46.511Z,13.60
2022-11-09T10:17:45.526Z,13.70
2022-11-09T10:20:33.286Z,13.60
2022-11-09T10:23:18.576Z,13.60
2022-11-09T10:26:03.661Z,13.60
2022-11-09T10:28:54.374Z,13.60
2022-11-09T10:31:21.840Z,13.60
2022-11-09T10:33:59.656Z,13.60
2022-11-09T10:36:37.839Z,13.70
2022-11-09T10:39:04.734Z,13.70
2022-11-09T10:41:42.406Z,13.80
2022-11-09T10:44:18.203Z,13.90
2022-11-09T10:47:12.929Z,13.80
2022-11-09T10:49:40.940Z,13.80
2022-11-09T10:52:33.167Z,13.80
2022-11-09T10:55:23.921Z,13.80
2022-11-09T10:58:01.980Z,13.70
2022-11-09T11:00:28.953Z,13.70
2022-11-09T11:02:56.492Z,13.70
2022-11-09T11:05:26.735Z,13.80
2022-11-09T11:07:53.681Z,14.00
2022-11-09T11:10:21.443Z,13.90
2022-11-09T11:13:17.186Z,13.90
2022-11-09T11:15:44.059Z,14.10
2022-11-09T11:18:24.039Z,13.90
2022-11-09T11:21:18.403Z,13.90
2022-11-09T11:24:10.816Z,14.00
2022-11-09T11:26:52.310Z,13.90
2022-11-09T11:29:18.966Z,13.80
2022-11-09T11:31:45.710Z,13.80
2022-11-09T11:34:32.012Z,13.90
2022-11-09T11:37:30.468Z,14.00
2022-11-09T11:39:59.991Z,13.90
2022-11-09T11:42:59.065Z,13.90
2022-11-09T11:45:44.711Z,13.90
2022-11-09T11:48:26.133Z,13.80
2022-11-09T11:50:58.857Z,13.90
2022-11-09T11:53:49.853Z,13.80
2022-11-09T11:56:44.438Z,13.90
2022-11-09T11:59:29.858Z,13.90
2022-11-09T12:02:16.974Z,13.70
2022-11-09T12:05:02.024Z,13.60
2022-11-09T12:07:56.969Z,13.60
2022-11-09T12:10:33.193Z,13.50
2022-11-09T12:13:35.105Z,13.50
2022-11-09T12:16:14.057Z,13.60
2022-11-09T12:18:56.126Z,13.70
2022-11-09T12:22:04.503Z,13.80
2022-11-09T12:24:34.100Z,13.90
2022-11-09T12:27:45.691Z,13.90
2022-11-09T12:30:24.214Z,14.40
2022-11-09T12:33:20.443Z,14.60
2022-11-09T12:36:00.620Z,14.60
2022-11-09T12:38:38.045Z,14.90
2022-11-09T12:41:13.604Z,14.80
2022-11-09T12:43:54.013Z,14.80
2022-11-09T12:46:25.108Z,15.10
2022-11-09T12:48:53.760Z,15.40
2022-11-09T12:51:21.320Z,15.30
2022-11-09T12:53:48.200Z,15.50
2022-11-09T12:56:20.795Z,15.30
2022-11-09T12:58:47.597Z,15.20
2022-11-09T13:01:34.436Z,15.20
2022-11-09T13:04:06.092Z,15.20
2022-11-09T13:06:34.469Z,15.50
2022-11-09T13:09:16.604Z,15.40
2022-11-09T13:11:48.653Z,15.30
2022-11-09T13:14:30.555Z,15.00
2022-11-09T13:17:02.553Z,14.90
2022-11-09T13:19:35.447Z,14.90
2022-11-09T13:22:08.795Z,14.70
2022-11-09T13:24:52.194Z,14.70
2022-11-09T13:27:42.608Z,14.60
2022-11-09T13:30:35.545Z,14.70
2022-11-09T13:33:11.100Z,14.80
2022-11-09T13:35:40.969Z,14.70
2022-11-09T13:38:34.887Z,15.00
2022-11-09T13:41:03.834Z,14.90
2022-11-09T13:43:32.960Z,14.80
2022-11-09T13:46:03.780Z,14.80
2022-11-09T13:48:39.893Z,14.90
2022-11-09T13:51:11.667Z,14.90
2022-11-09T13:53:38.506Z,14.80
2022-11-09T13:56:28.246Z,14.80
2022-11-09T13:59:13.930Z,14.60
2022-11-09T14:01:49.788Z,14.40
2022-11-09T14:04:31.810Z,14.30
2022-11-09T14:07:05.112Z,14.30
2022-11-09T14:10:01.537Z,14.30
2022-11-09T14:12:38.179Z,14.30
2022-11-09T14:15:08.024Z,14.30
2022-11-09T14:17:59.202Z,14.40
2022-11-09T14:20:28.831Z,14.30
2022-11-09T14:22:55.660Z,14.30
2022-11-09T14:25:24.258Z,14.20
2022-11-09T14:27:57.388Z,14.10
2022-11-09T14:30:29.751Z,14.10
2022-11-09T14:32:58.529Z,14.10
2022-11-09T14:35:30.615Z,14.20
2022-11-09T14:38:00.172Z,14.20
2022-11-09T14:40:33.395Z,14.20
2022-11-09T14:43:28.492Z,14.20
2022-11-09T14:46:06.182Z,14.10
2022-11-09T14:48:33.962Z,14.10
2022-11-09T14:51:03.625Z,14.10
2022-11-09T14:53:38.832Z,14.10
2022-11-09T14:56:07.296Z,14.10
2022-11-09T14:58:36.678Z,14.00
2022-11-09T15:01:23.915Z,14.00
2022-11-09T15:04:17.576Z,14.00
2022-11-09T15:06:51.124Z,13.90
2022-11-09T15:09:24.314Z,13.90
2022-11-09T15:11:52.030Z,13.90
2022-11-09T15:14:34.220Z,13.90
2022-11-09T15:17:15.443Z,13.90
2022-11-09T15:19:54.668Z,13.90
2022-11-09T15:22:55.116Z,13.90
2022-11-09T15:25:26.793Z,13.80
2022-11-09T15:27:57.906Z,13.70
2022-11-09T15:30:44.590Z,13.80
2022-11-09T15:33:20.341Z,13.80
2022-11-09T15:35:57.775Z,13.70
2022-11-09T15:38:42.449Z,13.70
2022-11-09T15:41:20.518Z,13.60
2022-11-09T15:43:47.264Z,13.60
2022-11-09T15:46:24.459Z,13.60
2022-11-09T15:48:51.744Z,13.60
2022-11-09T15:51:19.407Z,13.50
2022-11-09T15:53:46.175Z,13.50
2022-11-09T15:56:23.304Z,13.50
2022-11-09T15:58:52.443Z,13.50
2022-11-09T16:01:19.256Z,13.50
2022-11-09T16:03:46.108Z,13.50
2022-11-09T16:06:18.970Z,13.40
2022-11-09T16:08:49.937Z,13.50
2022-11-09T16:11:17.192Z,13.50
2022-11-09T16:13:44.068Z,13.40
2022-11-09T16:16:12.689Z,13.50
2022-11-09T16:18:39.562Z,13.50
2022-11-09T16:21:15.057Z,13.50
2022-11-09T16:23:42.231Z,13.40
2022-11-09T16:26:12.001Z,13.40
2022-11-09T16:28:40.187Z,13.40
2022-11-09T16:31:07.527Z,13.40
2022-11-09T16:33:34.519Z,13.40
2022-11-09T16:36:05.026Z,13.40
2022-11-09T16:38:41.968Z,13.40
2022-11-09T16:41:09.561Z,13.40
2022-11-09T16:43:37.402Z,13.40
2022-11-09T16:46:04.461Z,13.40
2022-11-09T16:48:35.019Z,13.30
2022-11-09T16:51:02.274Z,13.30
2022-11-09T16:53:29.517Z,13.30
2022-11-09T16:55:56.929Z,13.30
2022-11-09T16:58:23.999Z,13.20
2022-11-09T17:03:38.778Z,13.20
2022-11-09T17:06:07.248Z,13.10
2022-11-09T17:08:33.972Z,13.10
2022-11-09T17:11:00.647Z,13.10
2022-11-09T17:13:27.386Z,13.10
2022-11-09T17:15:54.546Z,13.10
2022-11-09T17:18:21.461Z,13.10
2022-11-09T17:20:50.416Z,13.10
2022-11-09T17:23:18.953Z,13.00
2022-11-09T17:26:00.300Z,13.10
2022-11-09T17:28:27.884Z,13.00
2022-11-09T17:30:54.922Z,13.00
2022-11-09T17:33:22.064Z,13.00
2022-11-09T17:35:57.271Z,13.00
2022-11-09T17:38:24.055Z,13.00
2022-11-09T17:40:50.777Z,13.00
2022-11-09T17:43:17.775Z,12.90
2022-11-09T17:45:44.549Z,12.80
2022-11-09T17:48:11.275Z,12.80
2022-11-09T17:50:38.014Z,12.70
2022-11-09T17:53:04.759Z,12.70
2022-11-09T17:55:31.531Z,12.70
2022-11-09T17:57:58.477Z,12.70
2022-11-09T18:00:25.263Z,12.60
2022-11-09T18:02:55.535Z,12.60
2022-11-09T18:05:22.327Z,12.60
2022-11-09T18:07:49.114Z,12.60
2022-11-09T18:10:16.044Z,12.50
2022-11-09T18:12:42.977Z,12.40
2022-11-09T18:15:09.866Z,12.40
2022-11-09T18:17:36.582Z,12.40
2022-11-09T18:20:03.994Z,12.40
2022-11-09T18:22:30.727Z,12.40
2022-11-09T18:24:57.518Z,12.40
2022-11-09T18:27:29.917Z,12.30
2022-11-09T18:29:56.998Z,12.30
2022-11-09T18:32:23.875Z,12.30
2022-11-09T18:34:50.702Z,12.20
2022-11-09T18:37:17.579Z,12.20
2022-11-09T18:39:44.315Z,12.20
2022-11-09T18:42:11.192Z,12.30
2022-11-09T18:44:37.944Z,12.20
2022-11-09T18:47:06.835Z,12.20
2022-11-09T18:49:33.599Z,12.20
2022-11-09T18:52:00.551Z,12.30
2022-11-09T18:54:27.508Z,12.20
2022-11-09T18:56:54.309Z,12.20
2022-11-09T18:59:21.183Z,12.20
2022-11-09T19:01:47.976Z,12.10
2022-11-09T19:04:16.231Z,12.10
2022-11-09T19:06:43.677Z,12.00
2022-11-09T19:09:30.361Z,12.00
2022-11-09T19:11:57.897Z,11.90
2022-11-09T19:14:25.711Z,11.90
2022-11-09T19:16:53.317Z,11.90
2022-11-09T19:19:20.873Z,11.80
2022-11-09T19:21:55.201Z,11.80
2022-11-09T19:24:24.180Z,11.80
2022-11-09T19:26:51.919Z,11.80
2022-11-09T19:29:18.694Z,11.80
2022-11-09T19:31:46.254Z,11.80
2022-11-09T19:34:15.571Z,11.70
2022-11-09T19:36:43.244Z,11.70
2022-11-09T19:39:10.306Z,11.70
2022-11-09T19:41:37.064Z,11.70
2022-11-09T19:44:06.028Z,11.70
2022-11-09T19:46:34.775Z,11.60
2022-11-09T19:49:03.719Z,11.60
2022-11-09T19:51:31.148Z,11.60
2022-11-09T19:53:59.812Z,11.60
2022-11-09T19:56:29.364Z,11.60
2022-11-09T19:58:59.063Z,11.60
2022-11-09T20:01:26.491Z,11.50
2022-11-09T20:03:55.847Z,11.50
2022-11-09T20:06:23.997Z,11.50
2022-11-09T20:08:52.255Z,11.50
2022-11-09T20:11:40.188Z,11.50
2022-11-09T20:14:08.335Z,11.50
2022-11-09T20:16:36.418Z,11.50
2022-11-09T20:19:04.918Z,11.40
2022-11-09T20:21:31.783Z,11.40
2022-11-09T20:23:58.920Z,11.40
2022-11-09T20:26:25.728Z,11.40
2022-11-09T20:28:53.704Z,11.40
2022-11-09T20:31:39.363Z,11.40
2022-11-09T20:34:06.310Z,11.40
2022-11-09T20:36:33.581Z,11.30
2022-11-09T20:39:00.358Z,11.30
2022-11-09T20:41:27.727Z,11.30
2022-11-09T20:43:54.526Z,11.20
2022-11-09T20:46:23.979Z,11.30
2022-11-09T20:48:55.354Z,11.20
2022-11-09T20:51:23.874Z,11.30
2022-11-09T20:53:51.232Z,11.20
2022-11-09T20:56:19.006Z,11.20
2022-11-09T20:58:46.245Z,11.20
2022-11-09T21:01:26.938Z,11.20
2022-11-09T21:03:54.273Z,11.20
2022-11-09T21:06:21.794Z,11.20
2022-11-09T21:08:51.121Z,11.10
2022-11-09T21:11:19.067Z,11.10
2022-11-09T21:13:50.337Z,11.10
2022-11-09T21:16:19.255Z,11.10
2022-11-09T21:18:46.268Z,11.10
2022-11-09T21:21:18.599Z,11.10
2022-11-09T21:24:04.351Z,11.10
2022-11-09T21:26:50.002Z,11.00
2022-11-09T21:29:40.934Z,11.00
2022-11-09T21:32:09.067Z,11.00
2022-11-09T21:34:37.372Z,10.90
2022-11-09T21:37:05.370Z,10.90
2022-11-09T21:39:32.675Z,10.90
2022-11-09T21:42:00.145Z,10.90
2022-11-09T21:44:31.613Z,10.80
2022-11-09T21:46:59.238Z,10.90
2022-11-09T21:49:26.028Z,10.80
2022-11-09T21:51:53.027Z,10.90
2022-11-09T21:54:20.559Z,10.80
2022-11-09T21:56:48.419Z,10.80
2022-11-09T21:59:15.246Z,10.80
2022-11-09T22:01:42.058Z,10.90
2022-11-09T22:04:09.791Z,10.80
2022-11-09T22:06:38.900Z,10.80
2022-11-09T22:09:07.235Z,10.80
2022-11-09T22:11:52.388Z,10.80
2022-11-09T22:14:38.804Z,10.80
2022-11-09T22:17:09.926Z,10.80
2022-11-09T22:19:57.055Z,10.70
2022-11-09T22:22:24.678Z,10.70
2022-11-09T22:24:51.454Z,10.70
2022-11-09T22:27:18.309Z,10.70
2022-11-09T22:29:45.180Z,10.70
2022-11-09T22:32:12.014Z,10.70
2022-11-09T22:34:38.716Z,10.70
2022-11-09T22:37:05.443Z,10.70
2022-11-09T22:39:32.182Z,10.70
2022-11-09T22:41:58.973Z,10.70
2022-11-09T22:44:25.756Z,10.70
2022-11-09T22:46:52.552Z,10.60
2022-11-09T22:49:19.426Z,10.60
2022-11-09T22:51:46.167Z,10.60
2022-11-09T22:54:12.935Z,10.60
2022-11-09T22:56:39.646Z,10.60
2022-11-09T22:59:06.502Z,10.60
2022-11-09T23:01:33.545Z,10.60
2022-11-09T23:04:00.366Z,10.70
2022-11-09T23:06:27.203Z,10.70
2022-11-09T23:08:53.964Z,10.70
2022-11-09T23:11:22.962Z,10.60
2022-11-09T23:13:54.820Z,10.60
2022-11-09T23:16:23.072Z,10.60
2022-11-09T23:18:56.172Z,10.60
2022-11-09T23:21:27.356Z,10.60
2022-11-09T23:23:56.616Z,10.50
2022-11-09T23:26:24.885Z,10.50
2022-11-09T23:28:51.679Z,10.50
2022-11-09T23:31:23.579Z,10.50
2022-11-09T23:33:52.425Z,10.50
2022-11-09T23:36:19.526Z,10.60
2022-11-09T23:38:46.362Z,10.60
2022-11-09T23:41:14.534Z,10.50
2022-11-09T23:43:46.202Z,10.50
2022-11-09T23:46:15.692Z,10.50
2022-11-09T23:48:42.557Z,10.50
2022-11-09T23:51:10.212Z,10.50
2022-11-09T23:53:37.691Z,10.50
2022-11-09T23:56:07.886Z,10.40
2022-11-09T23:58:35.316Z,10.40
